ENZV/SVG METAR and TAF weather

Enter ICAO airport designator
Station Type Date Time Source
ENZV METAR 2018/04/26 14:50 UTC NOAA

ENZV 261450Z 20012KT 9999 SCT013TCU SCT072 10/05 Q1002 NOSIG


Station Type Date Time Source
ENZV Decoded METAR 2018/04/26 14:50 UTC NOAA

Stavanger / Sola, Norway (ENZV) 58-53N 005-38E 9M
Apr 26, 2018 - 10:50 AM EDT / 2018.04.26 1450 UTC
Wind: from the SSW (200 degrees) at 14 MPH (12 KT):0
Visibility: greater than 7 mile(s):0
Sky conditions: partly cloudy
Weather: Towering cumulus clouds observed
Temperature: 50 F (10 C)
Dew Point: 41 F (5 C)
Relative Humidity: 71%
Pressure (altimeter): 29.59 in. Hg (1002 hPa)
ob: ENZV 261450Z 20012KT 9999 SCT013TCU SCT072 10/05 Q1002 NOSIG
cycle: 15

Station Type Date Time Source
ENZV TAF 2018/04/26 12:57 UTC NOAA

TAF ENZV 261100Z 2612/2712 20010KT 9999 SCT012 BKN050
TEMPO 2612/2712 SHRA BKN012CB


Example: see airport list